KGFL/GFL METAR and TAF weather

Enter ICAO airport designator
Station Type Date Time Source
KGFL METAR 2021/09/25 11:53 UTC NOAA

KGFL 251153Z AUTO 00000KT 1/4SM FG OVC002 09/09 A3008 RMK AO2 SLP188 T00890089 10094 20067 53003


Station Type Date Time Source
KGFL Decoded METAR 2021/09/25 11:53 UTC NOAA

FLOYD BENNETT MEMORIAL AIRPORT , NY, United States (KGFL) 43-20N 073-37W 103M
Sep 25, 2021 - 07:53 AM EDT / 2021.09.25 1153 UTC
Wind: Calm:0
Visibility: 1/4 mile(s):0
Sky conditions: overcast
Weather: fog
Temperature: 48.0 F (8.9 C)
Dew Point: 48.0 F (8.9 C)
Relative Humidity: 100%
Pressure (altimeter): 30.08 in. Hg (1018 hPa)
Pressure tendency: 0.01 inches (0.3 hPa) higher than three hours ago
ob: KGFL 251153Z AUTO 00000KT 1/4SM FG OVC002 09/09 A3008 RMK AO2 SLP188 T00890089 10094 20067 53003
cycle: 12

Station Type Date Time Source
KGFL TAF 2021/09/25 12:22 UTC NOAA

TAF KGFL 251120Z 2512/2612 00000KT 3SM BR BKN005
TEMPO 2512/2513 1/2SM FG BKN002
FM251330 VRB03KT P6SM SKC
FM251600 15005KT P6SM SCT250
FM252300 00000KT P6SM BKN250
FM260600 VRB03KT P6SM BKN040 OVC200

Example: see airport list